DLH6U EGLL-EDDF
Flight info
| Callsign | DLH6U |
|---|---|
| Flight time | N/A |
| Altitude | 31000 |
| Route | DET L6 DVR UL9 KONAN UL607 SPI T180 NIVNU T847 IMCOM IMCOM1A |
| Aircraft | A320/M-SDE3FGHIRWY/LB1 |
Departure
| Time | 2026-05-06 08:59 |
|---|---|
| Airport | London Heathrow Airport (EGLL) |
Arrival
| Time | N/A |
|---|---|
| Airport | Frankfurt Main Airport (EDDF) |
| Time | Latitude | Longitude | Altitude | Speed | Heading |
|---|---|---|---|---|---|
| 2026-05-06 08:37 | 51.46859 | -0.44685 | 93 ft | 0 kts | 266° |
| 2026-05-06 08:49 | 51.46859 | -0.44669 | 93 ft | 2 kts | 266° |
| 2026-05-06 08:49 | 51.46860 | -0.44642 | 90 ft | 2 kts | 266° |
| 2026-05-06 08:49 | 51.46861 | -0.44616 | 94 ft | 2 kts | 266° |
| 2026-05-06 08:49 | 51.46862 | -0.44589 | 94 ft | 2 kts | 238° |
| 2026-05-06 08:50 | 51.46872 | -0.44573 | 91 ft | 0 kts | 183° |
| 2026-05-06 08:54 | 51.46852 | -0.44564 | 94 ft | 3 kts | 165° |
| 2026-05-06 08:54 | 51.46836 | -0.44557 | 91 ft | 6 kts | 167° |
| 2026-05-06 08:54 | 51.46743 | -0.44551 | 90 ft | 15 kts | 178° |
| 2026-05-06 08:54 | 51.46678 | -0.44579 | 93 ft | 8 kts | 223° |
| 2026-05-06 08:55 | 51.46663 | -0.44664 | 94 ft | 14 kts | 269° |
| 2026-05-06 08:55 | 51.46664 | -0.44863 | 95 ft | 20 kts | 271° |
| 2026-05-06 08:55 | 51.46663 | -0.45095 | 93 ft | 22 kts | 270° |
| 2026-05-06 08:55 | 51.46662 | -0.45353 | 89 ft | 25 kts | 269° |
| 2026-05-06 08:56 | 51.46661 | -0.45646 | 86 ft | 27 kts | 270° |
| 2026-05-06 08:56 | 51.46660 | -0.45953 | 91 ft | 28 kts | 268° |
| 2026-05-06 08:56 | 51.46658 | -0.46256 | 93 ft | 27 kts | 270° |
| 2026-05-06 08:56 | 51.46658 | -0.46548 | 97 ft | 26 kts | 270° |
| 2026-05-06 08:57 | 51.46657 | -0.46782 | 96 ft | 15 kts | 262° |
| 2026-05-06 08:57 | 51.46631 | -0.46847 | 93 ft | 1 kts | 210° |
| 2026-05-06 08:57 | 51.46625 | -0.46850 | 93 ft | 1 kts | 198° |
| 2026-05-06 08:57 | 51.46569 | -0.46820 | 93 ft | 12 kts | 133° |
| 2026-05-06 08:58 | 51.46532 | -0.46721 | 94 ft | 8 kts | 132° |
| 2026-05-06 08:58 | 51.46488 | -0.46704 | 97 ft | 3 kts | 127° |
| 2026-05-06 08:58 | 51.46488 | -0.46696 | 96 ft | 0 kts | 90° |
| 2026-05-06 08:59 | 51.46488 | -0.46513 | 93 ft | 51 kts | 90° |
| 2026-05-06 08:59 | 51.46490 | -0.45579 | 90 ft | 116 kts | 89° |
| 2026-05-06 08:59 | 51.46505 | -0.44040 | 277 ft | 148 kts | 87° |
| 2026-05-06 08:59 | 51.46493 | -0.42417 | 1008 ft | 148 kts | 91° |
| 2026-05-06 09:00 | 51.46189 | -0.40794 | 1650 ft | 160 kts | 120° |
| 2026-05-06 09:00 | 51.45349 | -0.39535 | 2271 ft | 167 kts | 137° |
| 2026-05-06 09:00 | 51.44509 | -0.38207 | 2831 ft | 173 kts | 124° |
| 2026-05-06 09:00 | 51.43924 | -0.36535 | 3371 ft | 173 kts | 105° |
| 2026-05-06 09:01 | 51.43506 | -0.34689 | 3878 ft | 181 kts | 102° |
| 2026-05-06 09:01 | 51.43112 | -0.32706 | 4328 ft | 192 kts | 99° |
| 2026-05-06 09:01 | 51.42749 | -0.30553 | 4743 ft | 211 kts | 98° |
| 2026-05-06 09:01 | 51.42408 | -0.28143 | 5076 ft | 233 kts | 94° |
| 2026-05-06 09:02 | 51.42198 | -0.25470 | 5443 ft | 256 kts | 93° |
| 2026-05-06 09:02 | 51.41931 | -0.22510 | 5870 ft | 280 kts | 96° |
| 2026-05-06 09:02 | 51.41552 | -0.19409 | 6498 ft | 288 kts | 100° |
| 2026-05-06 09:02 | 51.41024 | -0.16286 | 7287 ft | 295 kts | 103° |
| 2026-05-06 09:03 | 51.40514 | -0.13115 | 8334 ft | 291 kts | 100° |
| 2026-05-06 09:03 | 51.40093 | -0.09946 | 9275 ft | 292 kts | 98° |
| 2026-05-06 09:03 | 51.39703 | -0.06751 | 10150 ft | 295 kts | 98° |
| 2026-05-06 09:03 | 51.39292 | -0.03409 | 10492 ft | 318 kts | 98° |
| 2026-05-06 09:04 | 51.38834 | 0.00187 | 10737 ft | 341 kts | 99° |
| 2026-05-06 09:04 | 51.38329 | 0.04020 | 11042 ft | 359 kts | 100° |
| 2026-05-06 09:04 | 51.37789 | 0.07969 | 11641 ft | 368 kts | 101° |
| 2026-05-06 09:04 | 51.37213 | 0.12097 | 11944 ft | 392 kts | 101° |
| 2026-05-06 09:05 | 51.36594 | 0.16474 | 12178 ft | 415 kts | 101° |
| 2026-05-06 09:05 | 51.35940 | 0.21045 | 12718 ft | 425 kts | 102° |
| 2026-05-06 09:05 | 51.35290 | 0.25623 | 13426 ft | 430 kts | 102° |
| 2026-05-06 09:05 | 51.34624 | 0.30309 | 14071 ft | 435 kts | 102° |
| 2026-05-06 09:06 | 51.33948 | 0.35052 | 14651 ft | 440 kts | 102° |
| 2026-05-06 09:06 | 51.33263 | 0.39830 | 15306 ft | 442 kts | 102° |
| 2026-05-06 09:06 | 51.32572 | 0.44639 | 15935 ft | 447 kts | 102° |
| 2026-05-06 09:06 | 51.31884 | 0.49522 | 16451 ft | 451 kts | 102° |
| 2026-05-06 09:07 | 51.31237 | 0.54438 | 17024 ft | 453 kts | 101° |
| 2026-05-06 09:07 | 51.30644 | 0.59387 | 17508 ft | 456 kts | 100° |
| 2026-05-06 09:07 | 51.30071 | 0.64404 | 17908 ft | 460 kts | 99° |
| 2026-05-06 09:07 | 51.29510 | 0.69439 | 18442 ft | 460 kts | 99° |
| 2026-05-06 09:08 | 51.28938 | 0.74480 | 18893 ft | 461 kts | 100° |
| 2026-05-06 09:08 | 51.28343 | 0.79531 | 19240 ft | 464 kts | 101° |
| 2026-05-06 09:08 | 51.27739 | 0.84519 | 19652 ft | 464 kts | 101° |
| 2026-05-06 09:08 | 51.27118 | 0.89592 | 19996 ft | 467 kts | 101° |
| 2026-05-06 09:09 | 51.26488 | 0.94704 | 20291 ft | 470 kts | 101° |
| 2026-05-06 09:09 | 51.25854 | 0.99818 | 20702 ft | 469 kts | 101° |
| 2026-05-06 09:09 | 51.25216 | 1.04940 | 21055 ft | 471 kts | 101° |
| 2026-05-06 09:09 | 51.24576 | 1.10083 | 21356 ft | 473 kts | 101° |
| 2026-05-06 09:10 | 51.23936 | 1.15236 | 21685 ft | 474 kts | 102° |
| 2026-05-06 09:10 | 51.23293 | 1.20418 | 21984 ft | 477 kts | 102° |
| 2026-05-06 09:10 | 51.22648 | 1.25611 | 22271 ft | 479 kts | 102° |
| 2026-05-06 09:10 | 51.21998 | 1.30829 | 22603 ft | 480 kts | 102° |
| 2026-05-06 09:11 | 51.21340 | 1.36050 | 22856 ft | 482 kts | 102° |
| 2026-05-06 09:11 | 51.20673 | 1.41307 | 23131 ft | 484 kts | 102° |
| 2026-05-06 09:11 | 51.20011 | 1.46508 | 23425 ft | 485 kts | 102° |
| 2026-05-06 09:11 | 51.19338 | 1.51785 | 23632 ft | 488 kts | 102° |
| 2026-05-06 09:12 | 51.18661 | 1.57089 | 23860 ft | 489 kts | 102° |
| 2026-05-06 09:12 | 51.17983 | 1.62397 | 24102 ft | 490 kts | 102° |
| 2026-05-06 09:12 | 51.17299 | 1.67722 | 24314 ft | 491 kts | 102° |
| 2026-05-06 09:12 | 51.16609 | 1.73061 | 24554 ft | 492 kts | 102° |
| 2026-05-06 09:13 | 51.15915 | 1.78396 | 24781 ft | 493 kts | 102° |
| 2026-05-06 09:13 | 51.15217 | 1.83743 | 24988 ft | 495 kts | 103° |
| 2026-05-06 09:13 | 51.14506 | 1.89136 | 24939 ft | 498 kts | 102° |
| 2026-05-06 09:13 | 51.13797 | 1.94492 | 24939 ft | 493 kts | 102° |
| 2026-05-06 09:14 | 51.13173 | 1.99625 | 24946 ft | 468 kts | 98° |
| 2026-05-06 09:14 | 51.12888 | 2.04738 | 24944 ft | 460 kts | 95° |
| 2026-05-06 09:14 | 51.12643 | 2.09781 | 24941 ft | 454 kts | 95° |
| 2026-05-06 09:14 | 51.12387 | 2.14764 | 24942 ft | 449 kts | 95° |
| 2026-05-06 09:15 | 51.12122 | 2.19702 | 24941 ft | 445 kts | 95° |
| 2026-05-06 09:15 | 51.11855 | 2.24582 | 24939 ft | 441 kts | 96° |
| 2026-05-06 09:15 | 51.11590 | 2.29303 | 24931 ft | 437 kts | 95° |
| 2026-05-06 09:15 | 51.11325 | 2.34017 | 24930 ft | 434 kts | 96° |
| 2026-05-06 09:16 | 51.11052 | 2.38864 | 24926 ft | 430 kts | 96° |
| 2026-05-06 09:16 | 51.10789 | 2.43530 | 24928 ft | 427 kts | 95° |
| 2026-05-06 09:16 | 51.10525 | 2.48224 | 24925 ft | 425 kts | 96° |
| 2026-05-06 09:16 | 51.10258 | 2.52889 | 24926 ft | 422 kts | 95° |
| 2026-05-06 09:17 | 51.09989 | 2.57515 | 24925 ft | 419 kts | 96° |
| 2026-05-06 09:17 | 51.09723 | 2.62120 | 24922 ft | 417 kts | 96° |
| 2026-05-06 09:17 | 51.09269 | 2.66655 | 24925 ft | 414 kts | 106° |
| 2026-05-06 09:17 | 51.08462 | 2.71001 | 24918 ft | 402 kts | 107° |
| 2026-05-06 09:18 | 51.07692 | 2.75107 | 24918 ft | 384 kts | 107° |
| 2026-05-06 09:18 | 51.06950 | 2.79094 | 24919 ft | 368 kts | 107° |
| 2026-05-06 09:18 | 51.06250 | 2.82917 | 24919 ft | 352 kts | 107° |
| 2026-05-06 09:18 | 51.05587 | 2.86578 | 24917 ft | 338 kts | 107° |
| 2026-05-06 09:19 | 51.04954 | 2.90091 | 24917 ft | 325 kts | 107° |
| 2026-05-06 09:19 | 51.04343 | 2.93531 | 24918 ft | 322 kts | 107° |
| 2026-05-06 09:19 | 51.03740 | 2.96953 | 24919 ft | 321 kts | 106° |
| 2026-05-06 09:19 | 51.03137 | 3.00365 | 24918 ft | 321 kts | 105° |
| 2026-05-06 09:20 | 51.02967 | 3.03826 | 24913 ft | 321 kts | 81° |
| 2026-05-06 09:20 | 51.03714 | 3.07148 | 24912 ft | 322 kts | 58° |
| 2026-05-06 09:20 | 51.05017 | 3.10044 | 24913 ft | 323 kts | 52° |
| 2026-05-06 09:20 | 51.06399 | 3.12852 | 24914 ft | 323 kts | 52° |
| 2026-05-06 09:21 | 51.07796 | 3.15664 | 24914 ft | 323 kts | 52° |
| 2026-05-06 09:21 | 51.09187 | 3.18467 | 24913 ft | 323 kts | 52° |
| 2026-05-06 09:21 | 51.10583 | 3.21278 | 24913 ft | 324 kts | 52° |
| 2026-05-06 09:21 | 51.11976 | 3.24089 | 24908 ft | 323 kts | 52° |
| 2026-05-06 09:22 | 51.13367 | 3.26896 | 24905 ft | 323 kts | 52° |
| 2026-05-06 09:22 | 51.14744 | 3.29675 | 24906 ft | 323 kts | 52° |
| 2026-05-06 09:22 | 51.16073 | 3.32558 | 24901 ft | 322 kts | 62° |
| 2026-05-06 09:22 | 51.16840 | 3.35871 | 24649 ft | 322 kts | 81° |
| 2026-05-06 09:23 | 51.16804 | 3.39495 | 23724 ft | 338 kts | 103° |
| 2026-05-06 09:23 | 51.16253 | 3.43242 | 22626 ft | 356 kts | 102° |
| 2026-05-06 09:23 | 51.15499 | 3.47060 | 21582 ft | 369 kts | 119° |
| 2026-05-06 09:23 | 51.14070 | 3.50523 | 20554 ft | 381 kts | 125° |
| 2026-05-06 09:24 | 51.12519 | 3.54041 | 19446 ft | 395 kts | 125° |
| 2026-05-06 09:24 | 51.10917 | 3.57672 | 18335 ft | 408 kts | 126° |
| 2026-05-06 09:24 | 51.09289 | 3.61380 | 17061 ft | 420 kts | 125° |
| 2026-05-06 09:24 | 51.07605 | 3.65234 | 16005 ft | 426 kts | 124° |
| 2026-05-06 09:25 | 51.05922 | 3.69096 | 15224 ft | 424 kts | 123° |
| 2026-05-06 09:25 | 51.04244 | 3.72945 | 14538 ft | 420 kts | 123° |
| 2026-05-06 09:25 | 51.02592 | 3.76732 | 13868 ft | 415 kts | 123° |
| 2026-05-06 09:25 | 51.00959 | 3.80469 | 13117 ft | 406 kts | 123° |
| 2026-05-06 09:26 | 50.99387 | 3.84055 | 12539 ft | 382 kts | 123° |
| 2026-05-06 09:26 | 50.97925 | 3.87372 | 12359 ft | 352 kts | 123° |
| 2026-05-06 09:26 | 50.96570 | 3.90436 | 12220 ft | 326 kts | 123° |
| 2026-05-06 09:26 | 50.95332 | 3.93240 | 12101 ft | 304 kts | 123° |
| 2026-05-06 09:27 | 50.94286 | 3.95997 | 11948 ft | 280 kts | 110° |
| 2026-05-06 09:27 | 50.93715 | 3.98845 | 11509 ft | 270 kts | 97° |
| 2026-05-06 09:27 | 50.93625 | 4.01756 | 11221 ft | 255 kts | 84° |
| 2026-05-06 09:27 | 50.93913 | 4.04463 | 10854 ft | 245 kts | 71° |
| 2026-05-06 09:28 | 50.94477 | 4.07003 | 10268 ft | 247 kts | 69° |
| 2026-05-06 09:28 | 50.95077 | 4.09605 | 9512 ft | 255 kts | 68° |
| 2026-05-06 09:28 | 50.95692 | 4.12285 | 8709 ft | 261 kts | 68° |
| 2026-05-06 09:28 | 50.96318 | 4.15026 | 7920 ft | 266 kts | 68° |
| 2026-05-06 09:29 | 50.96941 | 4.17766 | 7158 ft | 269 kts | 69° |
| 2026-05-06 09:29 | 50.97577 | 4.20571 | 6419 ft | 271 kts | 68° |
| 2026-05-06 09:29 | 50.98218 | 4.23385 | 5641 ft | 271 kts | 68° |
| 2026-05-06 09:29 | 50.98859 | 4.26202 | 4865 ft | 271 kts | 68° |
| 2026-05-06 09:30 | 50.99498 | 4.29012 | 4074 ft | 269 kts | 68° |
| 2026-05-06 09:30 | 51.00119 | 4.31750 | 3708 ft | 253 kts | 68° |
| 2026-05-06 09:30 | 51.00686 | 4.34276 | 3587 ft | 234 kts | 68° |
| 2026-05-06 09:30 | 51.01217 | 4.36642 | 3454 ft | 221 kts | 68° |
| 2026-05-06 09:31 | 51.01717 | 4.38860 | 3272 ft | 212 kts | 69° |
| 2026-05-06 09:31 | 51.02214 | 4.41058 | 2975 ft | 213 kts | 68° |
| 2026-05-06 09:31 | 51.02715 | 4.43267 | 2825 ft | 212 kts | 68° |
| 2026-05-06 09:31 | 51.03214 | 4.45474 | 2689 ft | 214 kts | 68° |
| 2026-05-06 09:32 | 51.03722 | 4.47720 | 2554 ft | 217 kts | 67° |
| 2026-05-06 09:32 | 51.04233 | 4.49989 | 2422 ft | 220 kts | 68° |
| 2026-05-06 09:32 | 51.04751 | 4.52306 | 2289 ft | 224 kts | 67° |
| 2026-05-06 09:32 | 51.05273 | 4.54645 | 2163 ft | 225 kts | 66° |
| 2026-05-06 09:33 | 51.05797 | 4.56996 | 2059 ft | 225 kts | 67° |
| 2026-05-06 09:33 | 51.06315 | 4.59313 | 2014 ft | 216 kts | 66° |
| 2026-05-06 09:33 | 51.06791 | 4.61457 | 2016 ft | 196 kts | 67° |
| 2026-05-06 09:33 | 51.07239 | 4.63419 | 2019 ft | 190 kts | 66° |
| 2026-05-06 09:34 | 51.07698 | 4.65365 | 2021 ft | 187 kts | 65° |
| 2026-05-06 09:34 | 51.08096 | 4.67272 | 2029 ft | 174 kts | 76° |
| 2026-05-06 09:34 | 51.08082 | 4.69098 | 2000 ft | 160 kts | 95° |
| 2026-05-06 09:34 | 51.07556 | 4.70584 | 1997 ft | 160 kts | 142° |
| 2026-05-06 09:35 | 51.06554 | 4.71350 | 2022 ft | 159 kts | 152° |
| 2026-05-06 09:35 | 51.05468 | 4.71689 | 2013 ft | 161 kts | 180° |
| 2026-05-06 09:35 | 51.04377 | 4.71322 | 2015 ft | 161 kts | 197° |
| 2026-05-06 09:35 | 51.03335 | 4.70730 | 2006 ft | 160 kts | 202° |
| 2026-05-06 09:36 | 51.02296 | 4.70098 | 2008 ft | 159 kts | 202° |
| 2026-05-06 09:36 | 51.01302 | 4.69320 | 1772 ft | 159 kts | 219° |
| 2026-05-06 09:36 | 51.00444 | 4.68230 | 1579 ft | 156 kts | 222° |
| 2026-05-06 09:36 | 50.99601 | 4.67143 | 1518 ft | 156 kts | 222° |
| 2026-05-06 09:37 | 50.98761 | 4.66072 | 1521 ft | 155 kts | 222° |
| 2026-05-06 09:37 | 50.97928 | 4.64986 | 1528 ft | 156 kts | 223° |
| 2026-05-06 09:37 | 50.97083 | 4.63901 | 1531 ft | 156 kts | 222° |
| 2026-05-06 09:37 | 50.96239 | 4.62815 | 1531 ft | 155 kts | 223° |
| 2026-05-06 09:38 | 50.95413 | 4.61716 | 1535 ft | 155 kts | 223° |
| 2026-05-06 09:38 | 50.94586 | 4.60615 | 1529 ft | 156 kts | 223° |
| 2026-05-06 09:38 | 50.93861 | 4.59399 | 1413 ft | 152 kts | 252° |
| 2026-05-06 09:38 | 50.93501 | 4.57877 | 1256 ft | 149 kts | 246° |
| 2026-05-06 09:39 | 50.93033 | 4.56410 | 1050 ft | 151 kts | 250° |
| 2026-05-06 09:39 | 50.92601 | 4.54908 | 854 ft | 149 kts | 250° |
| 2026-05-06 09:39 | 50.92139 | 4.53461 | 705 ft | 149 kts | 242° |
| 2026-05-06 09:39 | 50.91728 | 4.51959 | 493 ft | 148 kts | 252° |
| 2026-05-06 09:40 | 50.91310 | 4.50468 | 247 ft | 146 kts | 251° |
| 2026-05-06 09:40 | 50.90902 | 4.49072 | 138 ft | 131 kts | 250° |
| 2026-05-06 09:40 | 50.90393 | 4.47320 | 138 ft | 39 kts | 243° |
| 2026-05-06 09:41 | 50.90344 | 4.47163 | 139 ft | 7 kts | 246° |
| 2026-05-06 09:41 | 50.90295 | 4.47010 | 144 ft | 19 kts | 247° |
| 2026-05-06 09:41 | 50.90232 | 4.46945 | 145 ft | 10 kts | 142° |
| 2026-05-06 09:41 | 50.90181 | 4.47092 | 145 ft | 19 kts | 117° |
| 2026-05-06 09:42 | 50.90140 | 4.47300 | 144 ft | 22 kts | 78° |
| 2026-05-06 09:42 | 50.90197 | 4.47503 | 140 ft | 12 kts | 65° |
| 2026-05-06 09:42 | 50.90195 | 4.47575 | 140 ft | 8 kts | 130° |
| 2026-05-06 09:42 | 50.90148 | 4.47611 | 141 ft | 9 kts | 155° |
| 2026-05-06 09:43 | 50.90131 | 4.47623 | 141 ft | 0 kts | 156° |